Eskisehir, Turkey

11:39 AM +03 on December 07, 2016 (GMT +0300)
Anadolu | | Change Station

Elev 2589 ft 39.81 °N, 30.52 °E | Updated 49 minutes ago

Scattered Clouds
Scattered Clouds
36 °F
Feels Like 31 °F
N
6
Wind Variable Wind from WSW

Today
High -- | Low -- °F
--% Chance of Precip.
Yesterday
High -- | Low -- °F
Precip. -- in
Pressure 30.36 in
Visibility 4.3 miles
Clouds Few 4000 ft
Scattered Clouds 10000 ft
Windchill 31 °F
Dew Point 27 °F
Humidity 70%
Rainfall 0.00 in
Snow Depth Not available.
8:05 AM 5:32 PM
Waxing Crescent, 50% visible
METAR LTBY 070750Z 24005KT 200V270 7000 FEW040 SCT100 02/M03 Q1028
Pressure 30.36 in
Visibility 4.3 miles
Clouds Few 4000 ft
Scattered Clouds 10000 ft
Windchill 31 °F
Dew Point 27 °F
Humidity 70%
Rainfall 0.00 in
Snow Depth Not available.
8:05 AM 5:32 PM
Waxing Crescent, 50% visible
METAR LTBY 070750Z 24005KT 200V270 7000 FEW040 SCT100 02/M03 Q1028

10-Day Weather Forecast

×

Almanac

Astronomy

Dec. 07, 2016 Rise Set
Actual Time
Civil Twilight
Nautical Twilight
Astronomical Twilight
Moon
Length of Visible Light
Length of Day
Tomorrow will be .
, % of the Moon is Illuminated

Today's Extremes

Country Highs Country Lows

Community

WunderPhotos

Upload Photos

1,956,104 photos uploaded!

WunderBlog® & News

Nearby

Air Quality

  Air Quality AQ Index Pollutant
Not available.

Snow Depth

Station Depth Elevation

Earthquake Activity

City Distance Mag. Time & Date
Minimum magnitude displayed is 2.5.

Coastal Water Temperatures

Place Temperature

Stations

Nearby Weather Stations

Station Location Temp. Windchill Dew Point Humidity Wind Precip. Elev Updated Type